Terminal Aerodrome Forecast
Issued by NWS Rapid City, SD

Home | Current Version | Previous Version | Text Only | Print | Product List | Glossary On
Versions: 1 2 3 4 5 6 7 8 9 10 11 12 13 14 15 16
000
FTUS43 KUNR 231341 AAA
TAFRAP
TAF AMD
KRAP 231341Z 2314/2412 VRB05KT P6SM BKN080
     FM231900 05009KT P6SM BKN010
     FM240200 02010KT 4SM BR OVC008
     FM240800 34012KT 2SM -SN OVC005=

USA.gov is the U.S. government's official web portal to all federal, state and local government web resources and services.